sensor_id;sensor_type;location;lat;lon;timestamp;pressure;altitude;pressure_sealevel;temperature;humidity
55759;BME280;41678;52.126;20.664;2023-02-04T00:02:11;99612.00;;;-0.87;100.00
55759;BME280;41678;52.126;20.664;2023-02-04T00:07:30;99623.38;;;-0.79;100.00
55759;BME280;41678;52.126;20.664;2023-02-04T00:12:50;99644.72;;;-0.88;100.00
55759;BME280;41678;52.126;20.664;2023-02-04T00:18:09;99662.69;;;-0.94;100.00
55759;BME280;41678;52.126;20.664;2023-02-04T00:23:29;99682.44;;;-0.96;99.74
55759;BME280;41678;52.126;20.664;2023-02-04T00:28:48;99694.34;;;-1.01;100.00
55759;BME280;41678;52.126;20.664;2023-02-04T00:34:09;99704.66;;;-1.03;100.00
55759;BME280;41678;52.126;20.664;2023-02-04T00:39:29;99712.13;;;-1.13;100.00
55759;BME280;41678;52.126;20.664;2023-02-04T00:44:48;99732.91;;;-1.09;100.00
55759;BME280;41678;52.126;20.664;2023-02-04T00:50:08;99756.06;;;-1.13;100.00
55759;BME280;41678;52.126;20.664;2023-02-04T00:55:27;99775.78;;;-1.16;99.97
55759;BME280;41678;52.126;20.664;2023-02-04T01:00:47;99790.38;;;-1.18;100.00
55759;BME280;41678;52.126;20.664;2023-02-04T01:06:07;99806.63;;;-1.22;100.00
55759;BME280;41678;52.126;20.664;2023-02-04T01:11:28;99825.69;;;-1.18;99.92
55759;BME280;41678;52.126;20.664;2023-02-04T01:16:48;99841.97;;;-1.21;100.00
55759;BME280;41678;52.126;20.664;2023-02-04T01:22:08;99861.50;;;-1.29;100.00
55759;BME280;41678;52.126;20.664;2023-02-04T01:27:29;99895.22;;;-1.26;100.00
55759;BME280;41678;52.126;20.664;2023-02-04T01:32:48;99903.75;;;-1.29;100.00
55759;BME280;41678;52.126;20.664;2023-02-04T01:38:08;99918.25;;;-1.32;100.00
55759;BME280;41678;52.126;20.664;2023-02-04T01:43:28;99946.59;;;-1.35;100.00
55759;BME280;41678;52.126;20.664;2023-02-04T01:48:49;99975.75;;;-1.38;100.00
55759;BME280;41678;52.126;20.664;2023-02-04T01:54:10;99992.09;;;-1.39;100.00
55759;BME280;41678;52.126;20.664;2023-02-04T01:59:30;100012.88;;;-1.36;100.00
55759;BME280;41678;52.126;20.664;2023-02-04T02:04:53;100025.72;;;-1.37;100.00
55759;BME280;41678;52.126;20.664;2023-02-04T02:10:13;100039.38;;;-1.41;100.00
55759;BME280;41678;52.126;20.664;2023-02-04T02:15:33;100057.41;;;-1.43;100.00
55759;BME280;41678;52.126;20.664;2023-02-04T02:20:53;100087.47;;;-1.45;100.00
55759;BME280;41678;52.126;20.664;2023-02-04T02:26:15;100112.63;;;-1.39;100.00
55759;BME280;41678;52.126;20.664;2023-02-04T02:31:35;100138.38;;;-1.41;100.00
55759;BME280;41678;52.126;20.664;2023-02-04T02:36:58;100154.72;;;-1.42;100.00
55759;BME280;41678;52.126;20.664;2023-02-04T02:42:18;100179.81;;;-1.38;100.00
55759;BME280;41678;52.126;20.664;2023-02-04T02:47:38;100189.13;;;-1.43;100.00
55759;BME280;41678;52.126;20.664;2023-02-04T02:52:58;100219.06;;;-1.48;100.00
55759;BME280;41678;52.126;20.664;2023-02-04T02:58:25;100225.16;;;-1.46;100.00
55759;BME280;41678;52.126;20.664;2023-02-04T03:03:49;100257.81;;;-1.48;100.00
55759;BME280;41678;52.126;20.664;2023-02-04T03:09:10;100283.63;;;-1.48;100.00
55759;BME280;41678;52.126;20.664;2023-02-04T03:14:30;100294.91;;;-1.46;100.00
55759;BME280;41678;52.126;20.664;2023-02-04T03:19:50;100311.09;;;-1.50;100.00
55759;BME280;41678;52.126;20.664;2023-02-04T03:25:10;100332.75;;;-1.47;100.00
55759;BME280;41678;52.126;20.664;2023-02-04T03:30:30;100351.59;;;-1.49;100.00
55759;BME280;41678;52.126;20.664;2023-02-04T03:35:51;100374.25;;;-1.42;99.93
55759;BME280;41678;52.126;20.664;2023-02-04T03:41:10;100403.38;;;-1.46;100.00
55759;BME280;41678;52.126;20.664;2023-02-04T03:46:30;100416.28;;;-1.46;100.00
55759;BME280;41678;52.126;20.664;2023-02-04T03:51:49;100441.22;;;-1.47;99.77
55759;BME280;41678;52.126;20.664;2023-02-04T03:57:08;100451.19;;;-1.56;100.00
55759;BME280;41678;52.126;20.664;2023-02-04T04:02:29;100466.75;;;-1.54;100.00
55759;BME280;41678;52.126;20.664;2023-02-04T04:07:48;100484.81;;;-1.54;100.00
55759;BME280;41678;52.126;20.664;2023-02-04T04:13:08;100504.63;;;-1.55;100.00
55759;BME280;41678;52.126;20.664;2023-02-04T04:18:27;100515.28;;;-1.67;100.00
55759;BME280;41678;52.126;20.664;2023-02-04T04:23:50;100536.09;;;-1.64;99.83
55759;BME280;41678;52.126;20.664;2023-02-04T04:29:10;100564.31;;;-1.68;99.76
55759;BME280;41678;52.126;20.664;2023-02-04T04:34:30;100590.03;;;-1.70;99.77
55759;BME280;41678;52.126;20.664;2023-02-04T04:39:49;100614.06;;;-1.73;99.50
55759;BME280;41678;52.126;20.664;2023-02-04T04:45:09;100620.78;;;-1.76;99.31
55759;BME280;41678;52.126;20.664;2023-02-04T04:50:29;100639.38;;;-1.83;99.64
55759;BME280;41678;52.126;20.664;2023-02-04T04:55:48;100654.72;;;-1.87;99.69
55759;BME280;41678;52.126;20.664;2023-02-04T05:01:08;100683.72;;;-1.92;99.32
55759;BME280;41678;52.126;20.664;2023-02-04T05:06:27;100686.31;;;-1.92;99.57
55759;BME280;41678;52.126;20.664;2023-02-04T05:11:46;100721.56;;;-1.93;99.00
55759;BME280;41678;52.126;20.664;2023-02-04T05:17:06;100724.00;;;-1.96;99.55
55759;BME280;41678;52.126;20.664;2023-02-04T05:22:25;100743.50;;;-2.03;99.54
55759;BME280;41678;52.126;20.664;2023-02-04T05:27:45;100763.72;;;-1.92;99.35
55759;BME280;41678;52.126;20.664;2023-02-04T05:33:04;100775.69;;;-1.94;99.64
55759;BME280;41678;52.126;20.664;2023-02-04T05:38:23;100791.16;;;-1.94;99.37
55759;BME280;41678;52.126;20.664;2023-02-04T05:43:43;100813.72;;;-1.90;99.65
55759;BME280;41678;52.126;20.664;2023-02-04T05:49:02;100820.97;;;-1.83;99.32
55759;BME280;41678;52.126;20.664;2023-02-04T05:54:22;100851.72;;;-1.88;99.56
55759;BME280;41678;52.126;20.664;2023-02-04T05:59:41;100863.75;;;-1.88;99.20
55759;BME280;41678;52.126;20.664;2023-02-04T06:05:01;100890.56;;;-1.85;99.23
55759;BME280;41678;52.126;20.664;2023-02-04T06:10:20;100901.66;;;-1.87;99.31
55759;BME280;41678;52.126;20.664;2023-02-04T06:15:39;100919.66;;;-1.89;99.15
55759;BME280;41678;52.126;20.664;2023-02-04T06:20:59;100942.06;;;-1.88;99.06
55759;BME280;41678;52.126;20.664;2023-02-04T06:26:19;100959.19;;;-1.90;98.89
55759;BME280;41678;52.126;20.664;2023-02-04T06:31:38;100976.28;;;-1.92;99.00
55759;BME280;41678;52.126;20.664;2023-02-04T06:36:58;100991.44;;;-1.98;98.92
55759;BME280;41678;52.126;20.664;2023-02-04T06:42:18;101002.44;;;-2.02;98.59
55759;BME280;41678;52.126;20.664;2023-02-04T06:47:37;101011.53;;;-2.09;98.25
55759;BME280;41678;52.126;20.664;2023-02-04T06:52:57;101026.78;;;-2.14;98.24
55759;BME280;41678;52.126;20.664;2023-02-04T06:58:17;101051.56;;;-2.17;97.99
55759;BME280;41678;52.126;20.664;2023-02-04T07:03:36;101068.88;;;-2.31;98.37
55759;BME280;41678;52.126;20.664;2023-02-04T07:08:56;101083.31;;;-2.35;98.40
55759;BME280;41678;52.126;20.664;2023-02-04T07:14:16;101090.97;;;-2.36;97.73
55759;BME280;41678;52.126;20.664;2023-02-04T07:19:37;101105.88;;;-2.47;97.86
55759;BME280;41678;52.126;20.664;2023-02-04T07:24:57;101116.56;;;-2.56;97.89
55759;BME280;41678;52.126;20.664;2023-02-04T07:30:17;101129.47;;;-2.56;97.38
55759;BME280;41678;52.126;20.664;2023-02-04T07:35:36;101141.19;;;-2.61;97.79
55759;BME280;41678;52.126;20.664;2023-02-04T07:40:58;101147.97;;;-2.63;97.58
55759;BME280;41678;52.126;20.664;2023-02-04T07:46:18;101153.13;;;-2.63;97.21
55759;BME280;41678;52.126;20.664;2023-02-04T07:51:38;101168.59;;;-2.63;97.52
55759;BME280;41678;52.126;20.664;2023-02-04T07:56:57;101178.63;;;-2.68;97.12
55759;BME280;41678;52.126;20.664;2023-02-04T08:02:17;101197.91;;;-2.61;97.08
55759;BME280;41678;52.126;20.664;2023-02-04T08:07:36;101197.41;;;-2.71;97.04
55759;BME280;41678;52.126;20.664;2023-02-04T08:12:56;101211.63;;;-2.62;96.81
55759;BME280;41678;52.126;20.664;2023-02-04T08:18:15;101203.44;;;-2.55;96.77
55759;BME280;41678;52.126;20.664;2023-02-04T08:23:35;101218.19;;;-2.52;96.83
55759;BME280;41678;52.126;20.664;2023-02-04T08:28:59;101228.13;;;-2.44;96.62
55759;BME280;41678;52.126;20.664;2023-02-04T08:34:19;101240.25;;;-2.43;96.08
55759;BME280;41678;52.126;20.664;2023-02-04T08:39:39;101251.78;;;-2.36;96.04
55759;BME280;41678;52.126;20.664;2023-02-04T08:45:03;101263.16;;;-2.32;96.60
55759;BME280;41678;52.126;20.664;2023-02-04T08:50:22;101272.13;;;-2.25;96.55
55759;BME280;41678;52.126;20.664;2023-02-04T08:55:42;101270.25;;;-2.28;96.92
55759;BME280;41678;52.126;20.664;2023-02-04T09:01:01;101275.63;;;-2.25;96.20
55759;BME280;41678;52.126;20.664;2023-02-04T09:06:21;101291.69;;;-2.14;96.18
55759;BME280;41678;52.126;20.664;2023-02-04T09:11:41;101303.97;;;-2.10;95.84
55759;BME280;41678;52.126;20.664;2023-02-04T09:17:01;101309.13;;;-2.10;95.51
55759;BME280;41678;52.126;20.664;2023-02-04T09:22:21;101325.69;;;-2.06;95.54
55759;BME280;41678;52.126;20.664;2023-02-04T09:27:40;101330.22;;;-2.02;95.08
55759;BME280;41678;52.126;20.664;2023-02-04T09:32:59;101332.50;;;-1.92;95.24
55759;BME280;41678;52.126;20.664;2023-02-04T09:38:19;101343.16;;;-1.86;95.61
55759;BME280;41678;52.126;20.664;2023-02-04T09:43:43;101349.84;;;-1.74;95.52
55759;BME280;41678;52.126;20.664;2023-02-04T09:49:03;101351.88;;;-1.68;95.34
55759;BME280;41678;52.126;20.664;2023-02-04T09:54:23;101360.69;;;-1.65;94.41
55759;BME280;41678;52.126;20.664;2023-02-04T09:59:44;101373.94;;;-1.59;94.22
55759;BME280;41678;52.126;20.664;2023-02-04T10:05:05;101381.66;;;-1.59;94.46
55759;BME280;41678;52.126;20.664;2023-02-04T10:10:26;101393.13;;;-1.53;93.88
55759;BME280;41678;52.126;20.664;2023-02-04T10:15:47;101401.63;;;-1.56;94.08
55759;BME280;41678;52.126;20.664;2023-02-04T10:21:13;101404.38;;;-1.53;94.10
55759;BME280;41678;52.126;20.664;2023-02-04T10:26:33;101401.16;;;-1.49;94.46
55759;BME280;41678;52.126;20.664;2023-02-04T10:31:53;101404.53;;;-1.50;94.00
55759;BME280;41678;52.126;20.664;2023-02-04T10:37:21;101403.72;;;-1.49;93.79
55759;BME280;41678;52.126;20.664;2023-02-04T10:42:47;101412.38;;;-1.48;94.01
55759;BME280;41678;52.126;20.664;2023-02-04T10:48:15;101417.63;;;-1.47;93.91
55759;BME280;41678;52.126;20.664;2023-02-04T10:53:35;101414.16;;;-1.47;93.33
55759;BME280;41678;52.126;20.664;2023-02-04T10:59:22;101419.22;;;-1.49;93.67
55759;BME280;41678;52.126;20.664;2023-02-04T11:04:45;101426.19;;;-1.48;93.47
55759;BME280;41678;52.126;20.664;2023-02-04T11:10:05;101426.28;;;-1.46;93.04
55759;BME280;41678;52.126;20.664;2023-02-04T11:15:45;101429.13;;;-1.41;93.26
55759;BME280;41678;52.126;20.664;2023-02-04T11:21:13;101417.72;;;-1.45;92.79
55759;BME280;41678;52.126;20.664;2023-02-04T11:26:35;101425.19;;;-1.35;92.47
55759;BME280;41678;52.126;20.664;2023-02-04T11:31:59;101437.09;;;-1.37;92.29
55759;BME280;41678;52.126;20.664;2023-02-04T11:43:02;101439.25;;;-1.30;92.42
55759;BME280;41678;52.126;20.664;2023-02-04T11:48:27;101442.91;;;-1.26;92.00
55759;BME280;41678;52.126;20.664;2023-02-04T11:53:51;101437.25;;;-1.19;91.95
55759;BME280;41678;52.126;20.664;2023-02-04T11:59:12;101440.56;;;-1.21;92.43
55759;BME280;41678;52.126;20.664;2023-02-04T12:04:31;101443.22;;;-1.20;92.04
55759;BME280;41678;52.126;20.664;2023-02-04T12:09:51;101438.22;;;-1.17;92.10
55759;BME280;41678;52.126;20.664;2023-02-04T12:15:19;101449.47;;;-1.16;91.60
55759;BME280;41678;52.126;20.664;2023-02-04T12:20:39;101455.44;;;-1.17;91.98
55759;BME280;41678;52.126;20.664;2023-02-04T12:25:58;101451.88;;;-1.19;92.05
55759;BME280;41678;52.126;20.664;2023-02-04T12:31:19;101461.66;;;-1.13;92.26
55759;BME280;41678;52.126;20.664;2023-02-04T12:36:38;101454.78;;;-1.13;92.45
55759;BME280;41678;52.126;20.664;2023-02-04T12:41:57;101463.19;;;-1.17;91.96
55759;BME280;41678;52.126;20.664;2023-02-04T12:47:17;101466.84;;;-1.13;92.01
55759;BME280;41678;52.126;20.664;2023-02-04T12:52:37;101476.28;;;-1.14;91.81
55759;BME280;41678;52.126;20.664;2023-02-04T12:57:57;101472.88;;;-1.13;91.74
55759;BME280;41678;52.126;20.664;2023-02-04T13:03:17;101466.91;;;-1.12;91.85
55759;BME280;41678;52.126;20.664;2023-02-04T13:08:37;101468.78;;;-1.09;91.72
55759;BME280;41678;52.126;20.664;2023-02-04T13:13:56;101471.09;;;-1.14;91.73
55759;BME280;41678;52.126;20.664;2023-02-04T13:19:16;101465.28;;;-1.10;91.39
55759;BME280;41678;52.126;20.664;2023-02-04T13:24:35;101473.84;;;-1.11;90.79
55759;BME280;41678;52.126;20.664;2023-02-04T13:29:55;101479.66;;;-1.15;90.76
55759;BME280;41678;52.126;20.664;2023-02-04T13:35:14;101483.22;;;-1.13;91.00
55759;BME280;41678;52.126;20.664;2023-02-04T13:40:34;101498.56;;;-1.16;91.14
55759;BME280;41678;52.126;20.664;2023-02-04T13:45:54;101496.94;;;-1.14;91.62
55759;BME280;41678;52.126;20.664;2023-02-04T13:51:16;101511.75;;;-1.11;90.96
55759;BME280;41678;52.126;20.664;2023-02-04T13:56:36;101526.28;;;-1.13;91.15
55759;BME280;41678;52.126;20.664;2023-02-04T14:01:56;101532.00;;;-1.19;91.21
55759;BME280;41678;52.126;20.664;2023-02-04T14:07:15;101542.25;;;-1.21;91.27
55759;BME280;41678;52.126;20.664;2023-02-04T14:12:35;101535.19;;;-1.23;90.82
55759;BME280;41678;52.126;20.664;2023-02-04T14:17:54;101534.84;;;-1.30;91.32
55759;BME280;41678;52.126;20.664;2023-02-04T14:23:14;101544.38;;;-1.29;90.80
55759;BME280;41678;52.126;20.664;2023-02-04T14:28:33;101547.34;;;-1.37;91.03
55759;BME280;41678;52.126;20.664;2023-02-04T14:33:53;101553.22;;;-1.40;90.99
55759;BME280;41678;52.126;20.664;2023-02-04T14:39:13;101558.09;;;-1.45;91.51
55759;BME280;41678;52.126;20.664;2023-02-04T14:44:33;101560.44;;;-1.49;90.76
55759;BME280;41678;52.126;20.664;2023-02-04T14:49:52;101575.56;;;-1.55;90.75
55759;BME280;41678;52.126;20.664;2023-02-04T14:55:12;101580.56;;;-1.59;91.09
55759;BME280;41678;52.126;20.664;2023-02-04T15:00:32;101583.50;;;-1.67;91.60
55759;BME280;41678;52.126;20.664;2023-02-04T15:05:52;101591.13;;;-1.69;90.92
55759;BME280;41678;52.126;20.664;2023-02-04T15:11:11;101607.09;;;-1.76;91.36
55759;BME280;41678;52.126;20.664;2023-02-04T15:16:30;101605.94;;;-1.81;91.43
55759;BME280;41678;52.126;20.664;2023-02-04T15:21:50;101611.22;;;-1.93;91.79
55759;BME280;41678;52.126;20.664;2023-02-04T15:27:12;101616.38;;;-1.93;91.78
55759;BME280;41678;52.126;20.664;2023-02-04T15:32:32;101623.94;;;-1.96;91.82
55759;BME280;41678;52.126;20.664;2023-02-04T15:37:51;101640.69;;;-1.90;91.98
55759;BME280;41678;52.126;20.664;2023-02-04T15:43:10;101645.28;;;-1.99;92.00
55759;BME280;41678;52.126;20.664;2023-02-04T15:48:30;101644.50;;;-1.98;91.85
55759;BME280;41678;52.126;20.664;2023-02-04T15:53:49;101642.34;;;-2.05;91.53
55759;BME280;41678;52.126;20.664;2023-02-04T15:59:09;101646.34;;;-2.10;91.80
55759;BME280;41678;52.126;20.664;2023-02-04T16:04:28;101663.31;;;-2.14;91.55
55759;BME280;41678;52.126;20.664;2023-02-04T16:09:47;101664.31;;;-2.25;91.80
55759;BME280;41678;52.126;20.664;2023-02-04T16:15:08;101668.50;;;-2.28;92.06
55759;BME280;41678;52.126;20.664;2023-02-04T16:20:27;101675.66;;;-2.37;91.54
55759;BME280;41678;52.126;20.664;2023-02-04T16:25:47;101683.31;;;-2.52;91.54
55759;BME280;41678;52.126;20.664;2023-02-04T16:31:07;101697.38;;;-2.47;91.55
55759;BME280;41678;52.126;20.664;2023-02-04T16:36:29;101701.47;;;-2.64;91.26
55759;BME280;41678;52.126;20.664;2023-02-04T16:41:49;101703.44;;;-2.73;91.47
55759;BME280;41678;52.126;20.664;2023-02-04T16:47:08;101705.63;;;-2.79;91.90
55759;BME280;41678;52.126;20.664;2023-02-04T16:52:29;101706.69;;;-2.89;91.49
55759;BME280;41678;52.126;20.664;2023-02-04T16:57:49;101730.38;;;-2.81;91.76
55759;BME280;41678;52.126;20.664;2023-02-04T17:03:13;101734.16;;;-2.90;91.75
55759;BME280;41678;52.126;20.664;2023-02-04T17:08:33;101746.72;;;-2.94;92.01
55759;BME280;41678;52.126;20.664;2023-02-04T17:13:53;101743.84;;;-2.99;91.90
55759;BME280;41678;52.126;20.664;2023-02-04T17:19:14;101752.47;;;-2.99;92.46
55759;BME280;41678;52.126;20.664;2023-02-04T17:24:35;101749.69;;;-3.02;92.19
55759;BME280;41678;52.126;20.664;2023-02-04T17:30:01;101752.16;;;-3.03;92.17
55759;BME280;41678;52.126;20.664;2023-02-04T17:35:20;101756.66;;;-3.01;92.34
55759;BME280;41678;52.126;20.664;2023-02-04T17:40:39;101767.63;;;-3.03;92.02
55759;BME280;41678;52.126;20.664;2023-02-04T17:46:00;101767.63;;;-3.03;91.92
55759;BME280;41678;52.126;20.664;2023-02-04T17:51:20;101769.47;;;-3.14;92.21
55759;BME280;41678;52.126;20.664;2023-02-04T17:56:39;101794.00;;;-3.19;92.52
55759;BME280;41678;52.126;20.664;2023-02-04T18:01:58;101801.47;;;-3.24;92.61
55759;BME280;41678;52.126;20.664;2023-02-04T18:07:18;101803.78;;;-3.27;92.50
55759;BME280;41678;52.126;20.664;2023-02-04T18:12:38;101805.84;;;-3.35;92.34
55759;BME280;41678;52.126;20.664;2023-02-04T18:18:10;101808.78;;;-3.42;92.77
55759;BME280;41678;52.126;20.664;2023-02-04T18:23:33;101812.50;;;-3.50;92.62
55759;BME280;41678;52.126;20.664;2023-02-04T18:28:52;101814.66;;;-3.57;92.51
55759;BME280;41678;52.126;20.664;2023-02-04T18:34:16;101829.19;;;-3.57;92.93
55759;BME280;41678;52.126;20.664;2023-02-04T18:39:39;101833.25;;;-3.61;92.39
55759;BME280;41678;52.126;20.664;2023-02-04T18:44:59;101833.50;;;-3.70;92.48
55759;BME280;41678;52.126;20.664;2023-02-04T18:55:47;101853.19;;;-3.82;92.56
55759;BME280;41678;52.126;20.664;2023-02-04T19:06:39;101851.66;;;-3.92;92.87
55759;BME280;41678;52.126;20.664;2023-02-04T19:12:15;101843.94;;;-3.92;92.92
55759;BME280;41678;52.126;20.664;2023-02-04T19:17:37;101849.31;;;-4.01;92.99
55759;BME280;41678;52.126;20.664;2023-02-04T19:22:57;101857.69;;;-4.03;92.63
55759;BME280;41678;52.126;20.664;2023-02-04T19:28:28;101869.88;;;-4.01;92.98
55759;BME280;41678;52.126;20.664;2023-02-04T19:33:48;101873.56;;;-4.09;92.93
55759;BME280;41678;52.126;20.664;2023-02-04T19:44:42;101885.28;;;-4.13;92.91
55759;BME280;41678;52.126;20.664;2023-02-04T19:55:35;101888.88;;;-4.22;92.92
55759;BME280;41678;52.126;20.664;2023-02-04T20:01:01;101890.66;;;-4.33;93.27
55759;BME280;41678;52.126;20.664;2023-02-04T20:06:47;101884.59;;;-4.34;92.91
55759;BME280;41678;52.126;20.664;2023-02-04T20:12:15;101899.13;;;-4.34;93.04
55759;BME280;41678;52.126;20.664;2023-02-04T20:17:40;101910.22;;;-4.35;93.22
55759;BME280;41678;52.126;20.664;2023-02-04T20:23:24;101917.94;;;-4.35;93.14
55759;BME280;41678;52.126;20.664;2023-02-04T20:28:46;101917.00;;;-4.36;93.21
55759;BME280;41678;52.126;20.664;2023-02-04T20:34:15;101930.44;;;-4.28;93.59
55759;BME280;41678;52.126;20.664;2023-02-04T20:39:37;101931.59;;;-4.24;93.46
55759;BME280;41678;52.126;20.664;2023-02-04T20:45:08;101937.94;;;-4.31;93.48
55759;BME280;41678;52.126;20.664;2023-02-04T20:50:43;101947.66;;;-4.27;93.56
55759;BME280;41678;52.126;20.664;2023-02-04T20:56:28;101955.09;;;-4.20;93.56
55759;BME280;41678;52.126;20.664;2023-02-04T21:01:50;101957.97;;;-4.27;93.62
55759;BME280;41678;52.126;20.664;2023-02-04T21:07:16;101971.09;;;-4.24;93.84
55759;BME280;41678;52.126;20.664;2023-02-04T21:12:37;101969.81;;;-4.29;93.85
55759;BME280;41678;52.126;20.664;2023-02-04T21:18:00;101973.72;;;-4.34;94.09
55759;BME280;41678;52.126;20.664;2023-02-04T21:23:19;101987.72;;;-4.31;93.61
55759;BME280;41678;52.126;20.664;2023-02-04T21:28:39;101993.75;;;-4.30;93.91
55759;BME280;41678;52.126;20.664;2023-02-04T21:33:58;101992.97;;;-4.29;94.15
55759;BME280;41678;52.126;20.664;2023-02-04T21:39:18;101997.66;;;-4.35;93.93
55759;BME280;41678;52.126;20.664;2023-02-04T21:44:39;102007.38;;;-4.31;93.99
55759;BME280;41678;52.126;20.664;2023-02-04T21:49:59;102010.59;;;-4.34;93.68
55759;BME280;41678;52.126;20.664;2023-02-04T21:55:20;102016.53;;;-4.35;93.78
55759;BME280;41678;52.126;20.664;2023-02-04T22:00:39;102019.84;;;-4.48;94.12
55759;BME280;41678;52.126;20.664;2023-02-04T22:05:59;102036.84;;;-4.50;94.27
55759;BME280;41678;52.126;20.664;2023-02-04T22:11:18;102032.97;;;-4.55;94.09
55759;BME280;41678;52.126;20.664;2023-02-04T22:16:37;102038.31;;;-4.64;93.97
55759;BME280;41678;52.126;20.664;2023-02-04T22:21:57;102049.03;;;-4.70;93.85
55759;BME280;41678;52.126;20.664;2023-02-04T22:27:16;102052.09;;;-4.74;93.92
55759;BME280;41678;52.126;20.664;2023-02-04T22:32:37;102060.66;;;-4.85;93.77
55759;BME280;41678;52.126;20.664;2023-02-04T22:37:56;102060.69;;;-4.95;93.72
55759;BME280;41678;52.126;20.664;2023-02-04T22:43:16;102076.75;;;-4.98;93.92
55759;BME280;41678;52.126;20.664;2023-02-04T22:48:36;102077.03;;;-5.05;93.67
55759;BME280;41678;52.126;20.664;2023-02-04T22:53:55;102090.03;;;-5.14;93.98
55759;BME280;41678;52.126;20.664;2023-02-04T22:59:15;102089.91;;;-5.26;93.84
55759;BME280;41678;52.126;20.664;2023-02-04T23:04:34;102113.81;;;-5.27;93.54
55759;BME280;41678;52.126;20.664;2023-02-04T23:09:54;102113.69;;;-5.39;93.66
55759;BME280;41678;52.126;20.664;2023-02-04T23:15:13;102116.03;;;-5.42;93.63
55759;BME280;41678;52.126;20.664;2023-02-04T23:20:34;102125.00;;;-5.47;93.49
55759;BME280;41678;52.126;20.664;2023-02-04T23:25:55;102127.84;;;-5.55;93.87
55759;BME280;41678;52.126;20.664;2023-02-04T23:31:15;102128.59;;;-5.56;93.58
55759;BME280;41678;52.126;20.664;2023-02-04T23:36:34;102142.59;;;-5.62;93.41
55759;BME280;41678;52.126;20.664;2023-02-04T23:41:54;102135.13;;;-5.70;93.49
55759;BME280;41678;52.126;20.664;2023-02-04T23:47:14;102138.97;;;-5.75;93.40
55759;BME280;41678;52.126;20.664;2023-02-04T23:52:33;102137.56;;;-5.81;93.29
55759;BME280;41678;52.126;20.664;2023-02-04T23:57:53;102139.72;;;-5.86;93.49
